sensor_id;sensor_type;location;lat;lon;timestamp;P1;durP1;ratioP1;P2;durP2;ratioP2
1785;SDS011;890;48.158;11.540;2022-07-22T00:00:12;16.53;;;15.10;;
1785;SDS011;890;48.158;11.540;2022-07-22T00:02:38;17.00;;;15.40;;
1785;SDS011;890;48.158;11.540;2022-07-22T00:05:04;17.73;;;16.13;;
1785;SDS011;890;48.158;11.540;2022-07-22T00:07:31;16.27;;;14.77;;
1785;SDS011;890;48.158;11.540;2022-07-22T00:09:56;17.27;;;15.57;;
1785;SDS011;890;48.158;11.540;2022-07-22T00:12:22;17.13;;;15.63;;
1785;SDS011;890;48.158;11.540;2022-07-22T00:14:48;17.87;;;16.27;;
1785;SDS011;890;48.158;11.540;2022-07-22T00:17:13;17.70;;;16.00;;
1785;SDS011;890;48.158;11.540;2022-07-22T00:19:39;17.50;;;15.90;;
1785;SDS011;890;48.158;11.540;2022-07-22T00:22:05;16.87;;;15.17;;
1785;SDS011;890;48.158;11.540;2022-07-22T00:24:31;18.50;;;16.80;;
1785;SDS011;890;48.158;11.540;2022-07-22T00:26:56;16.80;;;15.17;;
1785;SDS011;890;48.158;11.540;2022-07-22T00:29:22;17.00;;;15.30;;
1785;SDS011;890;48.158;11.540;2022-07-22T00:31:47;17.50;;;15.80;;
1785;SDS011;890;48.158;11.540;2022-07-22T00:34:13;17.47;;;15.67;;
1785;SDS011;890;48.158;11.540;2022-07-22T00:36:38;16.43;;;14.87;;
1785;SDS011;890;48.158;11.540;2022-07-22T00:39:04;17.17;;;15.57;;
1785;SDS011;890;48.158;11.540;2022-07-22T00:41:30;17.60;;;15.90;;
1785;SDS011;890;48.158;11.540;2022-07-22T00:44:00;17.60;;;15.90;;
1785;SDS011;890;48.158;11.540;2022-07-22T00:46:28;17.73;;;16.00;;
1785;SDS011;890;48.158;11.540;2022-07-22T00:48:54;16.63;;;15.03;;
1785;SDS011;890;48.158;11.540;2022-07-22T00:51:21;17.60;;;16.00;;
1785;SDS011;890;48.158;11.540;2022-07-22T00:53:47;17.90;;;15.23;;
1785;SDS011;890;48.158;11.540;2022-07-22T00:56:14;16.83;;;14.97;;
1785;SDS011;890;48.158;11.540;2022-07-22T00:58:40;16.87;;;15.27;;
1785;SDS011;890;48.158;11.540;2022-07-22T01:01:06;17.70;;;16.00;;
1785;SDS011;890;48.158;11.540;2022-07-22T01:03:32;17.07;;;15.47;;
1785;SDS011;890;48.158;11.540;2022-07-22T01:05:57;17.90;;;15.93;;
1785;SDS011;890;48.158;11.540;2022-07-22T01:08:23;16.83;;;15.30;;
1785;SDS011;890;48.158;11.540;2022-07-22T01:10:49;17.23;;;15.57;;
1785;SDS011;890;48.158;11.540;2022-07-22T01:13:15;17.13;;;15.53;;
1785;SDS011;890;48.158;11.540;2022-07-22T01:15:41;16.80;;;15.23;;
1785;SDS011;890;48.158;11.540;2022-07-22T01:18:06;17.70;;;16.10;;
1785;SDS011;890;48.158;11.540;2022-07-22T01:20:32;17.57;;;15.97;;
1785;SDS011;890;48.158;11.540;2022-07-22T01:22:59;16.90;;;15.40;;
1785;SDS011;890;48.158;11.540;2022-07-22T01:25:25;18.37;;;16.33;;
1785;SDS011;890;48.158;11.540;2022-07-22T01:27:51;17.53;;;15.97;;
1785;SDS011;890;48.158;11.540;2022-07-22T01:30:16;17.50;;;15.90;;
1785;SDS011;890;48.158;11.540;2022-07-22T01:32:42;17.53;;;15.93;;
1785;SDS011;890;48.158;11.540;2022-07-22T01:35:08;16.73;;;15.23;;
1785;SDS011;890;48.158;11.540;2022-07-22T01:37:34;17.40;;;15.80;;
1785;SDS011;890;48.158;11.540;2022-07-22T01:40:00;17.50;;;15.80;;
1785;SDS011;890;48.158;11.540;2022-07-22T01:42:25;17.13;;;15.40;;
1785;SDS011;890;48.158;11.540;2022-07-22T01:44:51;17.80;;;16.10;;
1785;SDS011;890;48.158;11.540;2022-07-22T01:47:17;18.17;;;16.57;;
1785;SDS011;890;48.158;11.540;2022-07-22T01:49:43;16.90;;;15.40;;
1785;SDS011;890;48.158;11.540;2022-07-22T01:52:08;17.03;;;15.53;;
1785;SDS011;890;48.158;11.540;2022-07-22T01:54:34;16.10;;;14.70;;
1785;SDS011;890;48.158;11.540;2022-07-22T01:57:00;15.67;;;14.27;;
1785;SDS011;890;48.158;11.540;2022-07-22T01:59:26;15.00;;;13.70;;
1785;SDS011;890;48.158;11.540;2022-07-22T02:01:51;15.17;;;13.67;;
1785;SDS011;890;48.158;11.540;2022-07-22T02:04:17;14.87;;;13.57;;
1785;SDS011;890;48.158;11.540;2022-07-22T02:06:42;15.20;;;13.50;;
1785;SDS011;890;48.158;11.540;2022-07-22T02:09:08;14.97;;;13.60;;
1785;SDS011;890;48.158;11.540;2022-07-22T02:11:34;15.23;;;13.80;;
1785;SDS011;890;48.158;11.540;2022-07-22T02:13:59;16.07;;;14.40;;
1785;SDS011;890;48.158;11.540;2022-07-22T02:16:25;17.27;;;15.60;;
1785;SDS011;890;48.158;11.540;2022-07-22T02:18:51;15.73;;;14.23;;
1785;SDS011;890;48.158;11.540;2022-07-22T02:21:17;16.90;;;15.50;;
1785;SDS011;890;48.158;11.540;2022-07-22T02:23:43;18.93;;;14.57;;
1785;SDS011;890;48.158;11.540;2022-07-22T02:26:08;16.17;;;14.67;;
1785;SDS011;890;48.158;11.540;2022-07-22T02:28:34;16.00;;;14.50;;
1785;SDS011;890;48.158;11.540;2022-07-22T02:31:00;16.50;;;15.10;;
1785;SDS011;890;48.158;11.540;2022-07-22T02:33:26;16.60;;;14.87;;
1785;SDS011;890;48.158;11.540;2022-07-22T02:35:51;15.47;;;13.93;;
1785;SDS011;890;48.158;11.540;2022-07-22T02:38:17;15.33;;;13.83;;
1785;SDS011;890;48.158;11.540;2022-07-22T02:40:42;16.60;;;14.87;;
1785;SDS011;890;48.158;11.540;2022-07-22T02:43:08;16.00;;;14.60;;
1785;SDS011;890;48.158;11.540;2022-07-22T02:45:33;16.87;;;15.27;;
1785;SDS011;890;48.158;11.540;2022-07-22T02:47:59;16.87;;;15.27;;
1785;SDS011;890;48.158;11.540;2022-07-22T02:50:25;17.10;;;15.40;;
1785;SDS011;890;48.158;11.540;2022-07-22T02:52:51;15.60;;;14.20;;
1785;SDS011;890;48.158;11.540;2022-07-22T02:55:17;15.50;;;13.90;;
1785;SDS011;890;48.158;11.540;2022-07-22T02:57:43;15.10;;;13.70;;
1785;SDS011;890;48.158;11.540;2022-07-22T03:00:10;15.37;;;14.00;;
1785;SDS011;890;48.158;11.540;2022-07-22T03:02:37;16.90;;;15.40;;
1785;SDS011;890;48.158;11.540;2022-07-22T03:05:04;15.57;;;14.10;;
1785;SDS011;890;48.158;11.540;2022-07-22T03:07:30;16.37;;;14.83;;
1785;SDS011;890;48.158;11.540;2022-07-22T03:09:56;16.47;;;14.77;;
1785;SDS011;890;48.158;11.540;2022-07-22T03:12:21;16.13;;;14.43;;
1785;SDS011;890;48.158;11.540;2022-07-22T03:14:47;16.27;;;14.87;;
1785;SDS011;890;48.158;11.540;2022-07-22T03:17:12;15.57;;;14.07;;
1785;SDS011;890;48.158;11.540;2022-07-22T03:19:38;15.83;;;14.23;;
1785;SDS011;890;48.158;11.540;2022-07-22T03:22:03;17.33;;;15.70;;
1785;SDS011;890;48.158;11.540;2022-07-22T03:24:29;17.27;;;15.57;;
1785;SDS011;890;48.158;11.540;2022-07-22T03:26:55;16.83;;;15.23;;
1785;SDS011;890;48.158;11.540;2022-07-22T03:29:20;17.53;;;15.87;;
1785;SDS011;890;48.158;11.540;2022-07-22T03:31:46;16.53;;;15.03;;
1785;SDS011;890;48.158;11.540;2022-07-22T03:34:11;16.17;;;14.47;;
1785;SDS011;890;48.158;11.540;2022-07-22T03:36:37;17.50;;;15.80;;
1785;SDS011;890;48.158;11.540;2022-07-22T03:39:02;17.30;;;15.50;;
1785;SDS011;890;48.158;11.540;2022-07-22T03:41:28;16.30;;;14.60;;
1785;SDS011;890;48.158;11.540;2022-07-22T03:43:54;17.73;;;16.13;;
1785;SDS011;890;48.158;11.540;2022-07-22T03:46:19;17.40;;;15.70;;
1785;SDS011;890;48.158;11.540;2022-07-22T03:48:45;17.30;;;15.60;;
1785;SDS011;890;48.158;11.540;2022-07-22T03:51:11;18.20;;;16.50;;
1785;SDS011;890;48.158;11.540;2022-07-22T03:53:36;18.43;;;16.73;;
1785;SDS011;890;48.158;11.540;2022-07-22T03:56:02;17.93;;;16.13;;
1785;SDS011;890;48.158;11.540;2022-07-22T03:58:28;18.80;;;17.00;;
1785;SDS011;890;48.158;11.540;2022-07-22T04:00:54;20.00;;;18.10;;
1785;SDS011;890;48.158;11.540;2022-07-22T04:03:19;17.93;;;16.03;;
1785;SDS011;890;48.158;11.540;2022-07-22T04:05:45;18.97;;;17.00;;
1785;SDS011;890;48.158;11.540;2022-07-22T04:08:11;19.60;;;17.70;;
1785;SDS011;890;48.158;11.540;2022-07-22T04:10:37;18.37;;;16.60;;
1785;SDS011;890;48.158;11.540;2022-07-22T04:13:03;20.03;;;17.53;;
1785;SDS011;890;48.158;11.540;2022-07-22T04:15:29;18.00;;;16.40;;
1785;SDS011;890;48.158;11.540;2022-07-22T04:17:55;19.10;;;17.20;;
1785;SDS011;890;48.158;11.540;2022-07-22T04:20:21;18.70;;;16.80;;
1785;SDS011;890;48.158;11.540;2022-07-22T04:22:46;18.00;;;16.20;;
1785;SDS011;890;48.158;11.540;2022-07-22T04:25:12;18.87;;;17.03;;
1785;SDS011;890;48.158;11.540;2022-07-22T04:27:38;18.23;;;16.47;;
1785;SDS011;890;48.158;11.540;2022-07-22T04:30:04;18.20;;;16.30;;
1785;SDS011;890;48.158;11.540;2022-07-22T04:32:30;18.27;;;16.57;;
1785;SDS011;890;48.158;11.540;2022-07-22T04:34:56;19.13;;;17.20;;
1785;SDS011;890;48.158;11.540;2022-07-22T04:37:21;18.37;;;16.53;;
1785;SDS011;890;48.158;11.540;2022-07-22T04:39:47;18.07;;;16.27;;
1785;SDS011;890;48.158;11.540;2022-07-22T04:42:12;18.33;;;16.43;;
1785;SDS011;890;48.158;11.540;2022-07-22T04:44:38;20.83;;;17.17;;
1785;SDS011;890;48.158;11.540;2022-07-22T04:47:03;17.27;;;15.33;;
1785;SDS011;890;48.158;11.540;2022-07-22T04:49:29;19.17;;;17.37;;
1785;SDS011;890;48.158;11.540;2022-07-22T04:51:55;17.20;;;15.50;;
1785;SDS011;890;48.158;11.540;2022-07-22T04:54:20;18.50;;;16.70;;
1785;SDS011;890;48.158;11.540;2022-07-22T04:56:46;18.67;;;16.87;;
1785;SDS011;890;48.158;11.540;2022-07-22T04:59:11;18.20;;;16.50;;
1785;SDS011;890;48.158;11.540;2022-07-22T05:01:37;18.70;;;16.80;;
1785;SDS011;890;48.158;11.540;2022-07-22T05:04:03;17.50;;;15.87;;
1785;SDS011;890;48.158;11.540;2022-07-22T05:06:28;19.23;;;17.10;;
1785;SDS011;890;48.158;11.540;2022-07-22T05:08:54;17.70;;;15.83;;
1785;SDS011;890;48.158;11.540;2022-07-22T05:11:20;17.70;;;16.00;;
1785;SDS011;890;48.158;11.540;2022-07-22T05:13:45;18.60;;;16.80;;
1785;SDS011;890;48.158;11.540;2022-07-22T05:16:11;20.67;;;17.10;;
1785;SDS011;890;48.158;11.540;2022-07-22T05:18:37;20.10;;;16.60;;
1785;SDS011;890;48.158;11.540;2022-07-22T05:21:02;17.60;;;15.90;;
1785;SDS011;890;48.158;11.540;2022-07-22T05:23:29;18.27;;;16.47;;
1785;SDS011;890;48.158;11.540;2022-07-22T05:29:23;18.17;;;16.37;;
1785;SDS011;890;48.158;11.540;2022-07-22T05:31:49;16.30;;;14.77;;
1785;SDS011;890;48.158;11.540;2022-07-22T05:34:14;16.70;;;15.10;;
1785;SDS011;890;48.158;11.540;2022-07-22T05:36:40;19.70;;;16.27;;
1785;SDS011;890;48.158;11.540;2022-07-22T05:39:05;16.30;;;14.60;;
1785;SDS011;890;48.158;11.540;2022-07-22T05:41:31;19.60;;;15.50;;
1785;SDS011;890;48.158;11.540;2022-07-22T05:43:56;16.93;;;15.30;;
1785;SDS011;890;48.158;11.540;2022-07-22T05:46:22;16.33;;;14.53;;
1785;SDS011;890;48.158;11.540;2022-07-22T05:48:47;17.60;;;16.00;;
1785;SDS011;890;48.158;11.540;2022-07-22T05:51:13;24.17;;;21.67;;
1785;SDS011;890;48.158;11.540;2022-07-22T05:53:39;16.57;;;14.77;;
1785;SDS011;890;48.158;11.540;2022-07-22T05:56:06;17.90;;;16.20;;
1785;SDS011;890;48.158;11.540;2022-07-22T05:58:33;15.17;;;13.83;;
1785;SDS011;890;48.158;11.540;2022-07-22T06:00:59;16.03;;;14.30;;
1785;SDS011;890;48.158;11.540;2022-07-22T06:03:25;15.90;;;14.50;;
1785;SDS011;890;48.158;11.540;2022-07-22T06:05:50;16.43;;;14.70;;
1785;SDS011;890;48.158;11.540;2022-07-22T06:08:16;14.83;;;13.40;;
1785;SDS011;890;48.158;11.540;2022-07-22T06:10:42;16.30;;;14.70;;
1785;SDS011;890;48.158;11.540;2022-07-22T06:13:08;16.13;;;14.53;;
1785;SDS011;890;48.158;11.540;2022-07-22T06:15:33;16.50;;;14.90;;
1785;SDS011;890;48.158;11.540;2022-07-22T06:17:59;15.80;;;14.20;;
1785;SDS011;890;48.158;11.540;2022-07-22T06:20:24;15.90;;;14.30;;
1785;SDS011;890;48.158;11.540;2022-07-22T06:22:50;15.40;;;14.00;;
1785;SDS011;890;48.158;11.540;2022-07-22T06:25:16;16.20;;;14.50;;
1785;SDS011;890;48.158;11.540;2022-07-22T06:27:41;15.77;;;14.33;;
1785;SDS011;890;48.158;11.540;2022-07-22T06:30:07;16.67;;;14.90;;
1785;SDS011;890;48.158;11.540;2022-07-22T06:32:33;16.17;;;14.57;;
1785;SDS011;890;48.158;11.540;2022-07-22T06:34:59;14.87;;;13.30;;
1785;SDS011;890;48.158;11.540;2022-07-22T06:37:25;15.70;;;14.20;;
1785;SDS011;890;48.158;11.540;2022-07-22T06:39:51;16.13;;;14.73;;
1785;SDS011;890;48.158;11.540;2022-07-22T06:42:16;16.20;;;13.10;;
1785;SDS011;890;48.158;11.540;2022-07-22T06:44:42;15.67;;;14.10;;
1785;SDS011;890;48.158;11.540;2022-07-22T06:47:08;15.83;;;14.30;;
1785;SDS011;890;48.158;11.540;2022-07-22T06:49:33;16.47;;;14.60;;
1785;SDS011;890;48.158;11.540;2022-07-22T06:51:59;15.70;;;14.17;;
1785;SDS011;890;48.158;11.540;2022-07-22T06:54:26;15.97;;;14.47;;
1785;SDS011;890;48.158;11.540;2022-07-22T06:56:52;15.67;;;14.07;;
1785;SDS011;890;48.158;11.540;2022-07-22T06:59:18;14.70;;;13.30;;
1785;SDS011;890;48.158;11.540;2022-07-22T07:01:44;15.27;;;13.67;;
1785;SDS011;890;48.158;11.540;2022-07-22T07:04:09;14.37;;;13.07;;
1785;SDS011;890;48.158;11.540;2022-07-22T07:06:35;14.57;;;13.07;;
1785;SDS011;890;48.158;11.540;2022-07-22T07:09:01;13.37;;;12.23;;
1785;SDS011;890;48.158;11.540;2022-07-22T07:11:27;14.57;;;13.10;;
1785;SDS011;890;48.158;11.540;2022-07-22T07:13:53;14.10;;;12.80;;
1785;SDS011;890;48.158;11.540;2022-07-22T07:16:18;14.40;;;13.10;;
1785;SDS011;890;48.158;11.540;2022-07-22T07:18:44;14.37;;;12.97;;
1785;SDS011;890;48.158;11.540;2022-07-22T07:21:10;14.43;;;13.13;;
1785;SDS011;890;48.158;11.540;2022-07-22T07:23:35;13.87;;;12.60;;
1785;SDS011;890;48.158;11.540;2022-07-22T07:26:01;13.27;;;12.07;;
1785;SDS011;890;48.158;11.540;2022-07-22T07:28:26;13.10;;;11.47;;
1785;SDS011;890;48.158;11.540;2022-07-22T07:30:52;12.27;;;11.07;;
1785;SDS011;890;48.158;11.540;2022-07-22T07:33:18;12.97;;;11.60;;
1785;SDS011;890;48.158;11.540;2022-07-22T07:35:45;12.40;;;11.23;;
1785;SDS011;890;48.158;11.540;2022-07-22T07:38:11;12.80;;;11.60;;
1785;SDS011;890;48.158;11.540;2022-07-22T07:40:37;13.20;;;12.00;;
1785;SDS011;890;48.158;11.540;2022-07-22T07:43:02;14.00;;;12.80;;
1785;SDS011;890;48.158;11.540;2022-07-22T07:45:28;12.47;;;11.27;;
1785;SDS011;890;48.158;11.540;2022-07-22T07:47:54;12.90;;;11.70;;
1785;SDS011;890;48.158;11.540;2022-07-22T07:50:20;13.20;;;12.00;;
1785;SDS011;890;48.158;11.540;2022-07-22T07:52:45;12.30;;;11.03;;
1785;SDS011;890;48.158;11.540;2022-07-22T07:55:12;13.40;;;11.50;;
1785;SDS011;890;48.158;11.540;2022-07-22T07:57:38;11.73;;;10.70;;
1785;SDS011;890;48.158;11.540;2022-07-22T08:00:05;13.47;;;12.17;;
1785;SDS011;890;48.158;11.540;2022-07-22T08:02:33;12.53;;;11.43;;
1785;SDS011;890;48.158;11.540;2022-07-22T08:04:58;12.10;;;10.80;;
1785;SDS011;890;48.158;11.540;2022-07-22T08:07:24;11.93;;;10.60;;
1785;SDS011;890;48.158;11.540;2022-07-22T08:09:50;12.53;;;11.23;;
1785;SDS011;890;48.158;11.540;2022-07-22T08:12:16;11.80;;;10.57;;
1785;SDS011;890;48.158;11.540;2022-07-22T08:14:42;11.23;;;10.30;;
1785;SDS011;890;48.158;11.540;2022-07-22T08:17:07;11.57;;;10.43;;
1785;SDS011;890;48.158;11.540;2022-07-22T08:19:33;11.13;;;10.10;;
1785;SDS011;890;48.158;11.540;2022-07-22T08:21:58;11.77;;;10.77;;
1785;SDS011;890;48.158;11.540;2022-07-22T08:24:24;14.83;;;13.43;;
1785;SDS011;890;48.158;11.540;2022-07-22T08:26:50;11.70;;;10.70;;
1785;SDS011;890;48.158;11.540;2022-07-22T08:29:15;13.37;;;12.00;;
1785;SDS011;890;48.158;11.540;2022-07-22T08:31:41;13.87;;;12.67;;
1785;SDS011;890;48.158;11.540;2022-07-22T08:34:07;11.90;;;10.70;;
1785;SDS011;890;48.158;11.540;2022-07-22T08:36:32;12.50;;;11.30;;
1785;SDS011;890;48.158;11.540;2022-07-22T08:38:58;12.17;;;10.80;;
1785;SDS011;890;48.158;11.540;2022-07-22T08:41:24;13.27;;;11.83;;
1785;SDS011;890;48.158;11.540;2022-07-22T08:43:50;10.77;;;9.80;;
1785;SDS011;890;48.158;11.540;2022-07-22T08:46:16;12.10;;;10.90;;
1785;SDS011;890;48.158;11.540;2022-07-22T08:48:42;11.13;;;10.23;;
1785;SDS011;890;48.158;11.540;2022-07-22T08:51:07;12.10;;;10.87;;
1785;SDS011;890;48.158;11.540;2022-07-22T08:53:33;12.17;;;11.03;;
1785;SDS011;890;48.158;11.540;2022-07-22T08:55:59;10.63;;;9.83;;
1785;SDS011;890;48.158;11.540;2022-07-22T08:58:25;12.67;;;11.57;;
1785;SDS011;890;48.158;11.540;2022-07-22T09:01:07;12.17;;;11.07;;
1785;SDS011;890;48.158;11.540;2022-07-22T09:03:35;12.40;;;10.50;;
1785;SDS011;890;48.158;11.540;2022-07-22T09:06:14;12.80;;;11.60;;
1785;SDS011;890;48.158;11.540;2022-07-22T09:09:00;11.67;;;10.57;;
1785;SDS011;890;48.158;11.540;2022-07-22T09:11:28;10.70;;;9.80;;
1785;SDS011;890;48.158;11.540;2022-07-22T09:13:55;10.80;;;9.70;;
1785;SDS011;890;48.158;11.540;2022-07-22T09:19:10;10.80;;;9.90;;
1785;SDS011;890;48.158;11.540;2022-07-22T09:21:38;10.80;;;9.80;;
1785;SDS011;890;48.158;11.540;2022-07-22T09:24:06;10.07;;;9.17;;
1785;SDS011;890;48.158;11.540;2022-07-22T09:26:33;10.00;;;9.10;;
1785;SDS011;890;48.158;11.540;2022-07-22T09:29:02;10.57;;;9.47;;
1785;SDS011;890;48.158;11.540;2022-07-22T09:31:36;10.30;;;9.50;;
1785;SDS011;890;48.158;11.540;2022-07-22T09:34:02;10.87;;;9.83;;
1785;SDS011;890;48.158;11.540;2022-07-22T09:36:29;10.70;;;9.77;;
1785;SDS011;890;48.158;11.540;2022-07-22T09:38:56;11.83;;;10.70;;
1785;SDS011;890;48.158;11.540;2022-07-22T09:41:22;10.10;;;9.10;;
1785;SDS011;890;48.158;11.540;2022-07-22T09:43:48;10.50;;;9.57;;
1785;SDS011;890;48.158;11.540;2022-07-22T09:46:15;10.13;;;9.03;;
1785;SDS011;890;48.158;11.540;2022-07-22T09:48:41;10.10;;;9.30;;
1785;SDS011;890;48.158;11.540;2022-07-22T09:51:08;9.77;;;8.97;;
1785;SDS011;890;48.158;11.540;2022-07-22T09:53:33;10.00;;;9.07;;
1785;SDS011;890;48.158;11.540;2022-07-22T09:56:00;11.13;;;9.97;;
1785;SDS011;890;48.158;11.540;2022-07-22T09:58:27;10.60;;;9.70;;
1785;SDS011;890;48.158;11.540;2022-07-22T10:00:53;9.17;;;8.30;;
1785;SDS011;890;48.158;11.540;2022-07-22T10:03:23;9.80;;;8.37;;
1785;SDS011;890;48.158;11.540;2022-07-22T10:05:56;9.10;;;8.03;;
1785;SDS011;890;48.158;11.540;2022-07-22T10:08:23;10.83;;;7.77;;
1785;SDS011;890;48.158;11.540;2022-07-22T10:10:53;9.53;;;7.70;;
1785;SDS011;890;48.158;11.540;2022-07-22T10:13:22;7.83;;;7.13;;
1785;SDS011;890;48.158;11.540;2022-07-22T10:15:48;7.70;;;7.00;;
1785;SDS011;890;48.158;11.540;2022-07-22T10:18:18;7.57;;;6.87;;
1785;SDS011;890;48.158;11.540;2022-07-22T10:20:44;7.13;;;6.43;;
1785;SDS011;890;48.158;11.540;2022-07-22T10:23:11;7.47;;;6.83;;
1785;SDS011;890;48.158;11.540;2022-07-22T10:25:50;7.30;;;6.60;;
1785;SDS011;890;48.158;11.540;2022-07-22T10:28:28;7.17;;;6.57;;
1785;SDS011;890;48.158;11.540;2022-07-22T10:33:43;9.03;;;8.17;;
1785;SDS011;890;48.158;11.540;2022-07-22T10:36:14;8.30;;;7.43;;
1785;SDS011;890;48.158;11.540;2022-07-22T10:39:02;10.67;;;9.67;;
1785;SDS011;890;48.158;11.540;2022-07-22T10:41:34;8.40;;;7.60;;
1785;SDS011;890;48.158;11.540;2022-07-22T10:44:01;9.83;;;8.70;;
1785;SDS011;890;48.158;11.540;2022-07-22T10:46:46;8.30;;;7.60;;
1785;SDS011;890;48.158;11.540;2022-07-22T10:49:12;8.67;;;7.97;;
1785;SDS011;890;48.158;11.540;2022-07-22T10:51:55;8.87;;;8.00;;
1785;SDS011;890;48.158;11.540;2022-07-22T10:54:33;7.97;;;7.27;;
1785;SDS011;890;48.158;11.540;2022-07-22T10:57:01;8.03;;;7.27;;
1785;SDS011;890;48.158;11.540;2022-07-22T10:59:27;9.40;;;8.60;;
1785;SDS011;890;48.158;11.540;2022-07-22T11:01:52;8.20;;;7.43;;
1785;SDS011;890;48.158;11.540;2022-07-22T11:04:25;8.43;;;7.63;;
1785;SDS011;890;48.158;11.540;2022-07-22T11:06:53;8.97;;;8.13;;
1785;SDS011;890;48.158;11.540;2022-07-22T11:09:21;7.50;;;6.90;;
1785;SDS011;890;48.158;11.540;2022-07-22T11:11:54;8.60;;;7.90;;
1785;SDS011;890;48.158;11.540;2022-07-22T11:14:26;8.80;;;8.00;;
1785;SDS011;890;48.158;11.540;2022-07-22T11:17:08;10.53;;;7.30;;
1785;SDS011;890;48.158;11.540;2022-07-22T11:19:38;7.90;;;7.30;;
1785;SDS011;890;48.158;11.540;2022-07-22T11:22:08;9.60;;;8.77;;
1785;SDS011;890;48.158;11.540;2022-07-22T11:24:35;9.20;;;8.40;;
1785;SDS011;890;48.158;11.540;2022-07-22T11:27:03;7.30;;;6.70;;
1785;SDS011;890;48.158;11.540;2022-07-22T11:31:59;9.10;;;8.20;;
1785;SDS011;890;48.158;11.540;2022-07-22T11:34:25;8.07;;;7.47;;
1785;SDS011;890;48.158;11.540;2022-07-22T11:36:52;10.00;;;9.20;;
1785;SDS011;890;48.158;11.540;2022-07-22T11:39:19;7.80;;;7.20;;
1785;SDS011;890;48.158;11.540;2022-07-22T11:41:46;8.90;;;8.20;;
1785;SDS011;890;48.158;11.540;2022-07-22T11:44:16;7.77;;;7.10;;
1785;SDS011;890;48.158;11.540;2022-07-22T11:46:43;8.93;;;7.97;;
1785;SDS011;890;48.158;11.540;2022-07-22T11:49:09;8.90;;;8.10;;
1785;SDS011;890;48.158;11.540;2022-07-22T11:51:37;9.73;;;8.30;;
1785;SDS011;890;48.158;11.540;2022-07-22T11:54:04;8.93;;;7.83;;
1785;SDS011;890;48.158;11.540;2022-07-22T11:56:30;11.07;;;7.20;;
1785;SDS011;890;48.158;11.540;2022-07-22T11:58:57;8.80;;;7.90;;
1785;SDS011;890;48.158;11.540;2022-07-22T12:01:24;8.13;;;7.53;;
1785;SDS011;890;48.158;11.540;2022-07-22T12:03:53;8.93;;;8.33;;
1785;SDS011;890;48.158;11.540;2022-07-22T12:06:21;8.53;;;7.87;;
1785;SDS011;890;48.158;11.540;2022-07-22T12:08:48;9.03;;;8.33;;
1785;SDS011;890;48.158;11.540;2022-07-22T12:11:27;7.57;;;6.97;;
1785;SDS011;890;48.158;11.540;2022-07-22T12:13:54;9.03;;;8.27;;
1785;SDS011;890;48.158;11.540;2022-07-22T12:16:29;8.07;;;7.47;;
1785;SDS011;890;48.158;11.540;2022-07-22T12:18:59;8.60;;;7.83;;
1785;SDS011;890;48.158;11.540;2022-07-22T12:21:27;7.80;;;7.30;;
1785;SDS011;890;48.158;11.540;2022-07-22T12:24:13;8.60;;;8.00;;
1785;SDS011;890;48.158;11.540;2022-07-22T12:29:41;9.00;;;8.20;;
1785;SDS011;890;48.158;11.540;2022-07-22T12:32:00;9.10;;;8.20;;
1785;SDS011;890;48.158;11.540;2022-07-22T12:40:24;9.50;;;8.70;;
1785;SDS011;890;48.158;11.540;2022-07-22T12:42:34;9.17;;;8.37;;
1785;SDS011;890;48.158;11.540;2022-07-22T12:45:18;9.07;;;8.33;;
1785;SDS011;890;48.158;11.540;2022-07-22T12:50:34;9.10;;;8.30;;
1785;SDS011;890;48.158;11.540;2022-07-22T12:53:05;9.30;;;8.50;;
1785;SDS011;890;48.158;11.540;2022-07-22T12:55:33;8.13;;;7.43;;
1785;SDS011;890;48.158;11.540;2022-07-22T12:58:01;8.60;;;7.70;;
1785;SDS011;890;48.158;11.540;2022-07-22T13:00:29;8.50;;;7.87;;
1785;SDS011;890;48.158;11.540;2022-07-22T13:02:57;10.03;;;8.80;;
1785;SDS011;890;48.158;11.540;2022-07-22T13:05:23;9.27;;;8.57;;
1785;SDS011;890;48.158;11.540;2022-07-22T13:07:49;9.77;;;8.97;;
1785;SDS011;890;48.158;11.540;2022-07-22T13:10:15;9.87;;;9.00;;
1785;SDS011;890;48.158;11.540;2022-07-22T13:12:41;8.70;;;8.10;;
1785;SDS011;890;48.158;11.540;2022-07-22T13:15:07;9.00;;;8.30;;
1785;SDS011;890;48.158;11.540;2022-07-22T13:17:34;9.67;;;8.87;;
1785;SDS011;890;48.158;11.540;2022-07-22T13:20:00;10.17;;;9.20;;
1785;SDS011;890;48.158;11.540;2022-07-22T13:22:27;12.17;;;9.77;;
1785;SDS011;890;48.158;11.540;2022-07-22T13:24:53;10.13;;;9.23;;
1785;SDS011;890;48.158;11.540;2022-07-22T13:27:18;10.70;;;9.00;;
1785;SDS011;890;48.158;11.540;2022-07-22T13:29:44;10.03;;;9.20;;
1785;SDS011;890;48.158;11.540;2022-07-22T13:32:10;10.30;;;9.50;;
1785;SDS011;890;48.158;11.540;2022-07-22T13:34:35;10.53;;;9.67;;
1785;SDS011;890;48.158;11.540;2022-07-22T13:37:01;9.77;;;9.07;;
1785;SDS011;890;48.158;11.540;2022-07-22T13:39:27;9.30;;;8.60;;
1785;SDS011;890;48.158;11.540;2022-07-22T13:41:52;10.70;;;9.60;;
1785;SDS011;890;48.158;11.540;2022-07-22T13:44:18;13.33;;;11.87;;
1785;SDS011;890;48.158;11.540;2022-07-22T13:46:44;11.10;;;10.00;;
1785;SDS011;890;48.158;11.540;2022-07-22T13:49:10;9.83;;;8.90;;
1785;SDS011;890;48.158;11.540;2022-07-22T13:51:36;11.00;;;9.90;;
1785;SDS011;890;48.158;11.540;2022-07-22T13:54:02;10.77;;;9.97;;
1785;SDS011;890;48.158;11.540;2022-07-22T13:56:28;10.20;;;9.30;;
1785;SDS011;890;48.158;11.540;2022-07-22T13:58:53;11.00;;;10.00;;
1785;SDS011;890;48.158;11.540;2022-07-22T14:01:19;10.40;;;9.30;;
1785;SDS011;890;48.158;11.540;2022-07-22T14:03:44;12.20;;;9.33;;
1785;SDS011;890;48.158;11.540;2022-07-22T14:06:10;10.13;;;9.33;;
1785;SDS011;890;48.158;11.540;2022-07-22T14:08:36;10.90;;;9.80;;
1785;SDS011;890;48.158;11.540;2022-07-22T14:11:02;10.27;;;9.47;;
1785;SDS011;890;48.158;11.540;2022-07-22T14:13:28;9.50;;;8.80;;
1785;SDS011;890;48.158;11.540;2022-07-22T14:15:53;9.77;;;8.97;;
1785;SDS011;890;48.158;11.540;2022-07-22T14:18:19;10.60;;;9.70;;
1785;SDS011;890;48.158;11.540;2022-07-22T14:20:45;10.33;;;9.53;;
1785;SDS011;890;48.158;11.540;2022-07-22T14:23:10;9.60;;;8.80;;
1785;SDS011;890;48.158;11.540;2022-07-22T14:25:38;10.23;;;9.33;;
1785;SDS011;890;48.158;11.540;2022-07-22T14:28:04;11.93;;;10.67;;
1785;SDS011;890;48.158;11.540;2022-07-22T14:30:31;10.13;;;9.10;;
1785;SDS011;890;48.158;11.540;2022-07-22T14:32:58;10.70;;;9.30;;
1785;SDS011;890;48.158;11.540;2022-07-22T14:35:23;9.70;;;8.90;;
1785;SDS011;890;48.158;11.540;2022-07-22T14:37:49;10.40;;;9.60;;
1785;SDS011;890;48.158;11.540;2022-07-22T14:40:14;10.27;;;9.40;;
1785;SDS011;890;48.158;11.540;2022-07-22T14:42:40;10.53;;;9.73;;
1785;SDS011;890;48.158;11.540;2022-07-22T14:45:06;9.40;;;8.70;;
1785;SDS011;890;48.158;11.540;2022-07-22T14:47:34;10.10;;;9.30;;
1785;SDS011;890;48.158;11.540;2022-07-22T14:50:01;9.63;;;8.83;;
1785;SDS011;890;48.158;11.540;2022-07-22T14:52:27;10.47;;;9.47;;
1785;SDS011;890;48.158;11.540;2022-07-22T14:54:53;10.13;;;9.10;;
1785;SDS011;890;48.158;11.540;2022-07-22T14:57:18;10.00;;;9.10;;
1785;SDS011;890;48.158;11.540;2022-07-22T14:59:44;9.87;;;9.07;;
1785;SDS011;890;48.158;11.540;2022-07-22T15:02:09;10.80;;;9.90;;
1785;SDS011;890;48.158;11.540;2022-07-22T15:04:35;9.93;;;9.23;;
1785;SDS011;890;48.158;11.540;2022-07-22T15:07:01;10.50;;;9.60;;
1785;SDS011;890;48.158;11.540;2022-07-22T15:09:27;11.53;;;10.53;;
1785;SDS011;890;48.158;11.540;2022-07-22T15:11:53;10.67;;;9.77;;
1785;SDS011;890;48.158;11.540;2022-07-22T15:14:19;11.80;;;10.73;;